createdAt,value
2023-12-04T00:00:34.983Z,99167.91
2023-12-04T00:03:01.835Z,99172.16
2023-12-04T00:05:28.973Z,99161.97
2023-12-04T00:07:55.807Z,99162.00
2023-12-04T00:10:22.717Z,99161.13
2023-12-04T00:12:50.874Z,99153.50
2023-12-04T00:15:20.238Z,99131.47
2023-12-04T00:17:47.215Z,99140.81
2023-12-04T00:20:14.147Z,99147.56
2023-12-04T00:22:41.004Z,99138.25
2023-12-04T00:25:08.535Z,99128.94
2023-12-04T00:27:35.480Z,99127.22
2023-12-04T00:30:04.977Z,99123.84
2023-12-04T00:32:31.977Z,99124.69
2023-12-04T00:34:59.183Z,99123.00
2023-12-04T00:37:28.278Z,99124.69
2023-12-04T00:39:55.291Z,99112.00
2023-12-04T00:42:22.145Z,99106.91
2023-12-04T00:44:48.980Z,99105.19
2023-12-04T00:47:16.268Z,99106.91
2023-12-04T00:49:43.119Z,99100.97
2023-12-04T00:52:10.017Z,99096.75
2023-12-04T00:54:40.221Z,99098.41
2023-12-04T00:57:07.384Z,99095.88
2023-12-04T00:59:34.273Z,99101.84
2023-12-04T01:02:01.698Z,99096.75
2023-12-04T01:04:28.585Z,99093.34
2023-12-04T01:06:55.527Z,99092.53
2023-12-04T01:09:25.237Z,99097.59
2023-12-04T01:11:55.523Z,99095.06
2023-12-04T01:14:24.107Z,99088.25
2023-12-04T01:16:50.927Z,99084.88
2023-12-04T01:19:18.474Z,99079.78
2023-12-04T01:21:45.381Z,99071.34
2023-12-04T01:24:12.395Z,99065.41
2023-12-04T01:26:39.416Z,99031.53
2023-12-04T01:29:06.445Z,99062.03
2023-12-04T01:31:33.391Z,99067.09
2023-12-04T01:34:00.702Z,99072.16
2023-12-04T01:36:27.572Z,99074.72
2023-12-04T01:38:54.400Z,99067.97
2023-12-04T01:41:21.981Z,99071.34
2023-12-04T01:43:48.807Z,99029.00
2023-12-04T01:46:18.406Z,99067.09
2023-12-04T01:48:48.620Z,99056.09
2023-12-04T01:51:18.148Z,99056.09
2023-12-04T01:53:45.396Z,99056.94
2023-12-04T01:56:13.012Z,99036.59
2023-12-04T01:58:39.906Z,99056.09
2023-12-04T02:01:07.398Z,99052.69
2023-12-04T02:03:34.976Z,99000.22
2023-12-04T02:06:04.848Z,99039.16
2023-12-04T02:08:32.283Z,99050.16
2023-12-04T02:11:00.792Z,99048.50
2023-12-04T02:13:28.737Z,99045.09
2023-12-04T02:15:56.757Z,99046.78
2023-12-04T02:18:25.125Z,99044.25
2023-12-04T02:20:52.625Z,99045.94
2023-12-04T02:23:19.470Z,99045.94
2023-12-04T02:25:46.372Z,99034.94
2023-12-04T02:28:16.924Z,99003.59
2023-12-04T02:30:45.390Z,99021.41
2023-12-04T02:33:14.573Z,99024.78
2023-12-04T02:35:43.235Z,99024.75
2023-12-04T02:38:10.823Z,99014.59
2023-12-04T02:40:37.777Z,99011.19
2023-12-04T02:43:04.672Z,99015.44
2023-12-04T02:45:31.627Z,99012.91
2023-12-04T02:47:58.982Z,99013.75
2023-12-04T02:50:25.857Z,99018.81
2023-12-04T02:52:52.703Z,99012.03
2023-12-04T02:55:19.502Z,99008.66
2023-12-04T02:57:46.471Z,99008.66
2023-12-04T03:00:14.127Z,99002.75
2023-12-04T03:02:41.127Z,99003.59
2023-12-04T03:05:08.143Z,98992.59
2023-12-04T03:07:35.003Z,98960.41
2023-12-04T03:10:02.220Z,98970.56
2023-12-04T03:12:29.134Z,98971.41
2023-12-04T03:14:55.940Z,98962.91
2023-12-04T03:17:22.924Z,98952.78
2023-12-04T03:19:49.786Z,98953.63
2023-12-04T03:22:19.615Z,98968.84
2023-12-04T03:24:47.662Z,98966.31
2023-12-04T03:27:14.552Z,98958.69
2023-12-04T03:29:41.416Z,98952.75
2023-12-04T03:32:08.310Z,98941.78
2023-12-04T03:34:35.243Z,98933.28
2023-12-04T03:37:02.181Z,98925.66
2023-12-04T03:39:29.054Z,98920.56
2023-12-04T03:41:55.969Z,98912.13
2023-12-04T03:44:24.102Z,98900.25
2023-12-04T03:46:50.993Z,98887.59
2023-12-04T03:49:17.874Z,98893.47
2023-12-04T03:51:44.782Z,98887.56
2023-12-04T03:54:12.405Z,98886.69
2023-12-04T03:56:39.262Z,98875.69
2023-12-04T03:59:06.126Z,98875.72
2023-12-04T04:01:32.982Z,98874.88
2023-12-04T04:04:00.648Z,98873.16
2023-12-04T04:06:27.524Z,98882.50
2023-12-04T04:08:54.731Z,98878.22
2023-12-04T04:11:22.161Z,98884.16
2023-12-04T04:13:49.051Z,98884.19
2023-12-04T04:16:17.298Z,98858.81
2023-12-04T04:18:44.624Z,98881.63
2023-12-04T04:21:11.648Z,98884.22
2023-12-04T04:23:38.458Z,98887.59
2023-12-04T04:26:05.456Z,98853.78
2023-12-04T04:28:32.410Z,98885.94
2023-12-04T04:30:59.386Z,98880.88
2023-12-04T04:33:26.294Z,98887.66
2023-12-04T04:35:53.146Z,98897.75
2023-12-04T04:38:20.020Z,98902.84
2023-12-04T04:40:46.924Z,98891.81
2023-12-04T04:43:13.925Z,98886.75
2023-12-04T04:45:40.794Z,98882.50
2023-12-04T04:48:07.735Z,98896.03
2023-12-04T04:50:34.601Z,98887.56
2023-12-04T04:53:01.648Z,98895.16
2023-12-04T04:55:46.762Z,98881.63
2023-12-04T04:58:16.119Z,98891.78
2023-12-04T05:00:43.996Z,98894.31
2023-12-04T05:03:10.878Z,98872.34
2023-12-04T05:05:38.560Z,98890.06
2023-12-04T05:08:05.615Z,98877.38
2023-12-04T05:10:32.599Z,98883.28
2023-12-04T05:13:00.238Z,98880.75
2023-12-04T05:15:27.150Z,98877.31
2023-12-04T05:17:54.512Z,98869.69
2023-12-04T05:20:21.363Z,98868.88
2023-12-04T05:22:48.699Z,98882.41
2023-12-04T05:25:15.648Z,98873.09
2023-12-04T05:27:42.866Z,98857.84
2023-12-04T05:30:10.141Z,98851.91
2023-12-04T05:32:37.219Z,98847.69
2023-12-04T05:35:04.358Z,98849.38
2023-12-04T05:37:32.275Z,98840.03
2023-12-04T05:39:59.257Z,98837.50
2023-12-04T05:42:26.101Z,98834.94
2023-12-04T05:44:56.391Z,98832.41
2023-12-04T05:47:23.422Z,98824.78
2023-12-04T05:49:50.691Z,98823.94
2023-12-04T05:52:17.625Z,98820.56
2023-12-04T05:54:44.629Z,98818.03
2023-12-04T05:57:12.093Z,98818.00
2023-12-04T05:59:39.346Z,98818.84
2023-12-04T06:02:06.434Z,98827.38
2023-12-04T06:04:33.482Z,98812.94
2023-12-04T06:07:00.440Z,98807.00
2023-12-04T06:09:27.306Z,98818.84
2023-12-04T06:11:54.598Z,98815.44
2023-12-04T06:14:21.461Z,98795.13
2023-12-04T06:16:48.286Z,98801.00
2023-12-04T06:19:15.474Z,98803.53
2023-12-04T06:21:42.522Z,98813.69
2023-12-04T06:24:10.203Z,98808.63
2023-12-04T06:26:43.416Z,98801.00
2023-12-04T06:29:10.670Z,98805.22
2023-12-04T06:31:37.878Z,98773.97
2023-12-04T06:34:05.214Z,98805.16
2023-12-04T06:36:38.716Z,98803.47
2023-12-04T06:39:11.090Z,98784.91
2023-12-04T06:41:39.207Z,98804.28
2023-12-04T06:44:06.934Z,98796.66
2023-12-04T06:46:38.854Z,98794.94
2023-12-04T06:49:09.381Z,98793.22
2023-12-04T06:51:36.530Z,98794.06
2023-12-04T06:54:03.493Z,98784.75
2023-12-04T06:56:30.332Z,98775.41
2023-12-04T06:58:57.466Z,98776.25
2023-12-04T07:01:24.520Z,98752.56
2023-12-04T07:03:51.493Z,98774.56
2023-12-04T07:06:18.463Z,98763.50
2023-12-04T07:08:45.922Z,98769.44
2023-12-04T07:11:15.392Z,98739.91
2023-12-04T07:13:43.284Z,98759.25
2023-12-04T07:16:10.621Z,98749.06
2023-12-04T07:18:37.702Z,98741.50
2023-12-04T07:21:05.266Z,98746.56
2023-12-04T07:23:32.158Z,98748.25
2023-12-04T07:25:59.021Z,98754.25
2023-12-04T07:28:26.385Z,98755.88
2023-12-04T07:30:54.913Z,98734.75
2023-12-04T07:33:21.831Z,98747.38
2023-12-04T07:35:48.806Z,98745.72
2023-12-04T07:38:15.717Z,98753.31
2023-12-04T07:40:42.549Z,98746.56
2023-12-04T07:43:09.411Z,98748.19
2023-12-04T07:45:38.022Z,98749.41
2023-12-04T07:48:05.927Z,98743.34
2023-12-04T07:50:32.827Z,98733.03
2023-12-04T07:52:59.731Z,98709.41
2023-12-04T07:55:26.573Z,98727.84
2023-12-04T07:57:53.521Z,98740.53
2023-12-04T08:00:21.013Z,98738.97
2023-12-04T08:02:47.943Z,98737.19
2023-12-04T08:05:15.844Z,98735.00
2023-12-04T08:07:42.701Z,98726.31
2023-12-04T08:10:09.947Z,98705.09
2023-12-04T08:12:36.855Z,98721.88
2023-12-04T08:15:05.837Z,98723.63
2023-12-04T08:17:32.728Z,98729.06
2023-12-04T08:19:59.858Z,98736.53
2023-12-04T08:22:26.760Z,98733.97
2023-12-04T08:24:54.291Z,98741.50
2023-12-04T08:27:21.231Z,98726.97
2023-12-04T08:29:48.126Z,98703.38
2023-12-04T08:32:14.971Z,98734.50
2023-12-04T08:34:41.923Z,98730.84
2023-12-04T08:37:09.150Z,98726.34
2023-12-04T08:39:36.092Z,98712.22
2023-12-04T08:42:05.382Z,98706.91
2023-12-04T08:44:36.750Z,98700.75
2023-12-04T08:47:04.057Z,98701.97
2023-12-04T08:49:36.299Z,98688.31
2023-12-04T08:52:10.392Z,98713.03
2023-12-04T08:54:42.116Z,98704.78
2023-12-04T08:57:09.685Z,98699.66
2023-12-04T08:59:36.743Z,98688.44
2023-12-04T09:02:05.065Z,98707.25
2023-12-04T09:04:35.435Z,98709.97
2023-12-04T09:08:26.321Z,98694.00
2023-12-04T09:09:50.362Z,98709.19
2023-12-04T09:12:17.682Z,98708.41
2023-12-04T09:14:44.542Z,98721.91
2023-12-04T09:17:11.913Z,98727.81
2023-12-04T09:19:38.975Z,98709.16
2023-12-04T09:22:12.743Z,98720.84
2023-12-04T09:24:46.001Z,98704.91
2023-12-04T09:27:13.177Z,98703.88
2023-12-04T09:29:42.333Z,98687.69
2023-12-04T09:32:09.271Z,98710.34
2023-12-04T09:34:36.134Z,98706.00
2023-12-04T09:37:08.991Z,98696.56
2023-12-04T09:39:38.501Z,98709.13
2023-12-04T09:42:05.710Z,98698.88
2023-12-04T09:44:33.548Z,98697.06
2023-12-04T09:47:02.680Z,98693.59
2023-12-04T09:49:30.828Z,98688.41
2023-12-04T09:52:06.234Z,98684.13
2023-12-04T09:54:36.627Z,98699.28
2023-12-04T09:57:05.917Z,98703.47
2023-12-04T09:59:33.221Z,98696.63
2023-12-04T10:02:00.520Z,98699.94
2023-12-04T10:04:27.428Z,98693.19
2023-12-04T10:06:54.651Z,98676.22
2023-12-04T10:09:23.635Z,98677.75
2023-12-04T10:11:54.291Z,98688.75
2023-12-04T10:14:22.624Z,98696.31
2023-12-04T10:16:50.917Z,98711.56
2023-12-04T10:19:32.764Z,98702.41
2023-12-04T10:22:01.594Z,98681.97
2023-12-04T10:24:36.985Z,98693.72
2023-12-04T10:27:13.249Z,98679.44
2023-12-04T10:29:49.379Z,98678.44
2023-12-04T10:32:23.356Z,98683.41
2023-12-04T10:34:51.370Z,98679.06
2023-12-04T10:37:18.947Z,98655.25
2023-12-04T10:39:50.740Z,98648.41
2023-12-04T10:42:29.036Z,98663.81
2023-12-04T10:44:58.251Z,98649.59
2023-12-04T10:47:25.762Z,98635.88
2023-12-04T10:49:54.182Z,98627.22
2023-12-04T10:52:21.400Z,98622.31
2023-12-04T10:54:49.176Z,98610.97
2023-12-04T10:57:34.733Z,98621.97
2023-12-04T11:00:07.995Z,98610.78
2023-12-04T11:02:36.578Z,98600.53
2023-12-04T11:05:15.199Z,98577.69
2023-12-04T11:08:13.643Z,98589.34
2023-12-04T11:10:48.573Z,98588.44
2023-12-04T11:13:38.782Z,98582.38
2023-12-04T11:16:26.196Z,98561.47
2023-12-04T11:19:05.973Z,98557.94
2023-12-04T11:21:35.165Z,98545.16
2023-12-04T11:24:03.094Z,98540.13
2023-12-04T11:26:31.082Z,98549.19
2023-12-04T11:28:58.726Z,98546.94
2023-12-04T11:31:26.111Z,98547.69
2023-12-04T11:33:53.217Z,98547.47
2023-12-04T11:36:20.616Z,98546.06
2023-12-04T11:38:50.665Z,98558.59
2023-12-04T11:41:25.885Z,98556.06
2023-12-04T11:43:57.577Z,98544.38
2023-12-04T11:46:27.166Z,98538.06
2023-12-04T11:49:27.164Z,98533.41
2023-12-04T11:51:54.115Z,98525.53
2023-12-04T11:54:25.894Z,98524.13
2023-12-04T11:57:23.569Z,98519.88
2023-12-04T11:59:50.700Z,98514.06
2023-12-04T12:02:18.409Z,98500.47
2023-12-04T12:04:46.881Z,98470.31
2023-12-04T12:07:13.945Z,98455.53
2023-12-04T12:09:41.641Z,98457.69
2023-12-04T12:12:09.759Z,98433.72
2023-12-04T12:14:36.643Z,98438.56
2023-12-04T12:17:03.786Z,98426.50
2023-12-04T12:19:30.952Z,98421.44
2023-12-04T12:21:58.363Z,98421.97
2023-12-04T12:24:27.114Z,98428.69
2023-12-04T12:26:56.511Z,98416.75
2023-12-04T12:29:23.449Z,98417.69
2023-12-04T12:31:52.058Z,98432.69
2023-12-04T12:34:19.235Z,98425.31
2023-12-04T12:36:46.264Z,98414.66
2023-12-04T12:39:13.522Z,98410.78
2023-12-04T12:41:40.514Z,98397.03
2023-12-04T12:44:07.394Z,98396.34
2023-12-04T12:46:35.101Z,98398.03
2023-12-04T12:49:02.099Z,98378.09
2023-12-04T12:51:29.836Z,98346.84
2023-12-04T12:53:58.453Z,98378.22
2023-12-04T12:56:27.388Z,98384.28
2023-12-04T12:58:55.008Z,98386.44
2023-12-04T13:01:29.246Z,98384.84
2023-12-04T13:03:58.423Z,98365.69
2023-12-04T13:06:28.308Z,98364.50
2023-12-04T13:08:56.491Z,98364.41
2023-12-04T13:11:24.257Z,98355.78
2023-12-04T13:13:51.355Z,98360.78
2023-12-04T13:16:19.446Z,98353.84
2023-12-04T13:18:46.394Z,98347.69
2023-12-04T13:21:13.410Z,98339.81
2023-12-04T13:23:40.781Z,98345.69
2023-12-04T13:26:11.389Z,98340.94
2023-12-04T13:28:44.142Z,98318.13
2023-12-04T13:31:12.238Z,98331.03
2023-12-04T13:33:39.191Z,98327.97
2023-12-04T13:36:06.844Z,98320.44
2023-12-04T13:38:37.755Z,98327.41
2023-12-04T13:41:24.244Z,98315.88
2023-12-04T13:43:51.194Z,98301.03
2023-12-04T13:46:18.178Z,98314.09
2023-12-04T13:48:45.575Z,98310.38
2023-12-04T13:51:14.140Z,98313.28
2023-12-04T13:53:46.078Z,98302.19
2023-12-04T13:56:21.999Z,98290.13
2023-12-04T13:58:56.767Z,98295.84
2023-12-04T14:01:31.081Z,98283.03
2023-12-04T14:04:05.353Z,98291.91
2023-12-04T14:06:33.945Z,98298.44
2023-12-04T14:09:01.095Z,98295.69
2023-12-04T14:11:28.076Z,98288.75
2023-12-04T14:13:56.010Z,98294.47
2023-12-04T14:16:22.885Z,98285.31
2023-12-04T14:18:49.823Z,98256.31
2023-12-04T14:21:16.721Z,98245.81
2023-12-04T14:23:43.563Z,98232.03
2023-12-04T14:26:10.447Z,98263.94
2023-12-04T14:28:42.761Z,98254.00
2023-12-04T14:31:11.517Z,98270.72
2023-12-04T14:33:41.904Z,98279.47
2023-12-04T14:36:13.033Z,98266.88
2023-12-04T14:38:41.186Z,98257.97
2023-12-04T14:41:10.433Z,98277.34
2023-12-04T14:43:38.662Z,98264.75
2023-12-04T14:46:06.346Z,98249.84
2023-12-04T14:48:33.914Z,98241.19
2023-12-04T14:51:02.619Z,98234.88
2023-12-04T14:53:33.216Z,98236.22
2023-12-04T14:56:29.063Z,98229.19
2023-12-04T14:59:15.375Z,98221.03
2023-12-04T15:01:43.016Z,98227.81
2023-12-04T15:04:09.992Z,98225.69
2023-12-04T15:07:01.258Z,98212.19
2023-12-04T15:09:28.358Z,98227.56
2023-12-04T15:12:13.799Z,98234.09
2023-12-04T15:14:49.034Z,98221.66
2023-12-04T15:17:46.161Z,98233.59
2023-12-04T15:20:13.124Z,98211.91
2023-12-04T15:22:39.997Z,98214.97
2023-12-04T15:25:12.629Z,98205.75
2023-12-04T15:27:39.653Z,98188.81
2023-12-04T15:30:09.455Z,98195.78
2023-12-04T15:32:36.480Z,98188.22
2023-12-04T15:35:06.094Z,98180.06
2023-12-04T15:37:35.462Z,98186.38
2023-12-04T15:40:03.354Z,98194.34
2023-12-04T15:42:30.268Z,98180.47
2023-12-04T15:44:57.167Z,98182.66
2023-12-04T15:47:25.750Z,98177.38
2023-12-04T15:49:52.745Z,98175.63
2023-12-04T15:52:20.037Z,98152.34
2023-12-04T15:54:49.029Z,98162.50
2023-12-04T15:57:17.378Z,98168.09
2023-12-04T15:59:46.654Z,98165.69
2023-12-04T16:02:14.687Z,98151.41
2023-12-04T16:04:41.713Z,98168.63
2023-12-04T16:07:08.778Z,98154.66
2023-12-04T16:09:35.811Z,98153.59
2023-12-04T16:12:02.829Z,98144.78
2023-12-04T16:14:29.666Z,98127.44
2023-12-04T16:16:57.787Z,98128.88
2023-12-04T16:19:25.551Z,98129.59
2023-12-04T16:21:52.530Z,98128.53
2023-12-04T16:24:22.829Z,98117.47
2023-12-04T16:26:52.341Z,98114.66
2023-12-04T16:29:20.496Z,98119.78
2023-12-04T16:31:48.035Z,98092.03
2023-12-04T16:34:15.343Z,98117.13
2023-12-04T16:36:42.303Z,98118.38
2023-12-04T16:39:09.342Z,98120.97
2023-12-04T16:41:36.799Z,98115.09
2023-12-04T16:44:03.637Z,98112.16
2023-12-04T16:46:31.533Z,98109.38
2023-12-04T16:48:59.092Z,98109.28
2023-12-04T16:51:26.906Z,98093.94
2023-12-04T16:53:56.127Z,98101.03
2023-12-04T16:56:23.816Z,98098.13
2023-12-04T16:58:50.780Z,98093.84
2023-12-04T17:01:17.732Z,98090.50
2023-12-04T17:03:44.774Z,98059.59
2023-12-04T17:06:11.938Z,98089.69
2023-12-04T17:08:38.890Z,98086.34
2023-12-04T17:11:07.738Z,98082.22
2023-12-04T17:13:34.676Z,98076.13
2023-12-04T17:16:01.553Z,98065.31
2023-12-04T17:18:28.509Z,98067.13
2023-12-04T17:20:55.395Z,98068.63
2023-12-04T17:23:22.465Z,98064.50
2023-12-04T17:25:50.998Z,98062.00
2023-12-04T17:28:20.178Z,98052.94
2023-12-04T17:30:47.998Z,98052.50
2023-12-04T17:33:15.087Z,98050.13
2023-12-04T17:35:42.080Z,98056.78
2023-12-04T17:38:08.998Z,98040.13
2023-12-04T17:40:35.879Z,98033.25
2023-12-04T17:43:02.900Z,98046.56
2023-12-04T17:45:33.741Z,98028.91
2023-12-04T17:48:01.490Z,98029.53
2023-12-04T17:50:28.419Z,98029.47
2023-12-04T17:52:55.259Z,98021.06
2023-12-04T17:55:23.489Z,98027.34
2023-12-04T17:57:50.369Z,98020.16
2023-12-04T18:00:19.927Z,98019.63
2023-12-04T18:02:47.148Z,98022.50
2023-12-04T18:05:14.575Z,98018.25
2023-12-04T18:07:43.807Z,98009.66
2023-12-04T18:10:11.711Z,97991.50
2023-12-04T18:12:41.054Z,98004.69
2023-12-04T18:15:13.310Z,97985.91
2023-12-04T18:17:43.478Z,97983.22
2023-12-04T18:20:14.784Z,97968.28
2023-12-04T18:22:43.747Z,97982.66
2023-12-04T18:25:11.826Z,97981.00
2023-12-04T18:27:40.643Z,97982.88
2023-12-04T18:30:11.356Z,97969.13
2023-12-04T18:32:38.731Z,97973.91
2023-12-04T18:35:06.448Z,97963.50
2023-12-04T18:37:45.332Z,97961.72
2023-12-04T18:40:14.171Z,97960.72
2023-12-04T18:42:41.468Z,97958.06
2023-12-04T18:45:09.487Z,97958.78
2023-12-04T18:47:45.886Z,97949.63
2023-12-04T18:50:13.112Z,97955.31
2023-12-04T18:52:40.274Z,97950.97
2023-12-04T18:55:08.592Z,97945.91
2023-12-04T18:57:35.887Z,97945.19
2023-12-04T19:00:02.875Z,97945.03
2023-12-04T19:02:29.784Z,97949.41
2023-12-04T19:04:56.997Z,97941.66
2023-12-04T19:07:23.966Z,97929.78
2023-12-04T19:09:51.624Z,97940.00
2023-12-04T19:12:18.468Z,97933.19
2023-12-04T19:14:45.324Z,97937.34
2023-12-04T19:17:12.716Z,97923.25
2023-12-04T19:19:39.955Z,97938.75
2023-12-04T19:22:07.670Z,97942.19
2023-12-04T19:24:34.494Z,97936.38
2023-12-04T19:27:01.446Z,97938.63
2023-12-04T19:29:29.977Z,97923.81
2023-12-04T19:31:57.150Z,97924.50
2023-12-04T19:34:24.415Z,97922.50
2023-12-04T19:36:51.531Z,97930.00
2023-12-04T19:39:18.563Z,97917.09
2023-12-04T19:41:45.432Z,97924.47
2023-12-04T19:44:13.114Z,97920.81
2023-12-04T19:46:43.754Z,97919.19
2023-12-04T19:49:11.159Z,97919.06
2023-12-04T19:51:45.239Z,97918.28
2023-12-04T19:54:12.238Z,97903.00
2023-12-04T19:56:46.042Z,97906.03
2023-12-04T19:59:13.361Z,97888.28
2023-12-04T20:01:40.854Z,97914.38
2023-12-04T20:04:08.288Z,97905.91
2023-12-04T20:06:35.386Z,97903.38
2023-12-04T20:09:02.357Z,97901.28
2023-12-04T20:11:29.282Z,97901.53
2023-12-04T20:13:56.434Z,97905.56
2023-12-04T20:16:23.870Z,97899.47
2023-12-04T20:18:50.830Z,97892.09
2023-12-04T20:21:17.870Z,97904.81
2023-12-04T20:23:44.792Z,97899.53
2023-12-04T20:26:11.777Z,97902.13
2023-12-04T20:28:38.734Z,97907.66
2023-12-04T20:31:05.615Z,97910.06
2023-12-04T20:33:32.921Z,97911.75
2023-12-04T20:36:05.786Z,97913.34
2023-12-04T20:38:32.777Z,97916.84
2023-12-04T20:40:59.589Z,97906.19
2023-12-04T20:43:26.548Z,97909.44
2023-12-04T20:45:53.420Z,97915.63
2023-12-04T20:48:20.408Z,97914.84
2023-12-04T20:50:47.314Z,97911.31
2023-12-04T20:53:14.198Z,97914.50
2023-12-04T20:55:41.088Z,97907.56
2023-12-04T20:58:08.169Z,97910.72
2023-12-04T21:00:35.808Z,97912.13
2023-12-04T21:03:04.307Z,97910.25
2023-12-04T21:05:31.499Z,97901.91
2023-12-04T21:07:59.050Z,97920.03
2023-12-04T21:10:26.741Z,97911.47
2023-12-04T21:12:53.633Z,97911.09
2023-12-04T21:15:20.591Z,97915.38
2023-12-04T21:17:47.678Z,97915.09
2023-12-04T21:20:14.822Z,97906.97
2023-12-04T21:22:42.919Z,97913.81
2023-12-04T21:25:12.200Z,97911.88
2023-12-04T21:27:39.446Z,97882.69
2023-12-04T21:30:08.792Z,97914.97
2023-12-04T21:32:35.761Z,97915.59
2023-12-04T21:35:02.768Z,97902.75
2023-12-04T21:37:29.641Z,97901.34
2023-12-04T21:39:56.610Z,97897.69
2023-12-04T21:42:24.710Z,97892.41
2023-12-04T21:44:51.860Z,97894.81
2023-12-04T21:47:18.720Z,97894.47
2023-12-04T21:49:46.685Z,97900.50
2023-12-04T21:52:13.659Z,97897.78
2023-12-04T21:54:40.559Z,97881.50
2023-12-04T21:57:07.409Z,97886.75
2023-12-04T21:59:34.337Z,97892.50
2023-12-04T22:02:01.265Z,97882.47
2023-12-04T22:04:28.347Z,97882.47
2023-12-04T22:06:55.998Z,97886.81
2023-12-04T22:09:25.447Z,97862.09
2023-12-04T22:11:52.673Z,97885.34
2023-12-04T22:14:19.557Z,97884.78
2023-12-04T22:16:46.527Z,97878.59
2023-12-04T22:19:13.558Z,97881.25
2023-12-04T22:21:40.442Z,97876.03
2023-12-04T22:24:07.536Z,97869.94
2023-12-04T22:26:34.632Z,97863.84
2023-12-04T22:29:01.453Z,97869.63
2023-12-04T22:31:28.325Z,97850.63
2023-12-04T22:33:55.294Z,97854.81
2023-12-04T22:36:22.175Z,97849.63
2023-12-04T22:38:49.134Z,97860.25
2023-12-04T22:41:16.031Z,97830.44
2023-12-04T22:43:43.707Z,97847.84
2023-12-04T22:46:10.791Z,97856.91
2023-12-04T22:48:38.591Z,97851.78
2023-12-04T22:51:08.708Z,97858.41
2023-12-04T22:53:35.753Z,97854.94
2023-12-04T22:56:02.659Z,97845.63
2023-12-04T22:58:29.680Z,97848.25
2023-12-04T23:00:56.934Z,97850.00
2023-12-04T23:03:24.387Z,97852.69
2023-12-04T23:05:51.389Z,97851.47
2023-12-04T23:08:18.943Z,97852.03
2023-12-04T23:10:46.007Z,97853.38
2023-12-04T23:13:13.410Z,97855.69
2023-12-04T23:15:40.610Z,97846.94
2023-12-04T23:18:07.715Z,97848.16
2023-12-04T23:20:34.791Z,97853.28
2023-12-04T23:23:01.734Z,97849.31
2023-12-04T23:25:28.720Z,97852.88
2023-12-04T23:27:56.537Z,97844.19
2023-12-04T23:30:23.500Z,97841.94
2023-12-04T23:32:50.518Z,97850.13
2023-12-04T23:35:17.394Z,97850.56
2023-12-04T23:37:44.220Z,97851.56
2023-12-04T23:40:11.463Z,97841.16
2023-12-04T23:42:38.342Z,97848.56
2023-12-04T23:45:07.066Z,97845.09
2023-12-04T23:47:33.932Z,97842.59
2023-12-04T23:50:00.788Z,97835.78
2023-12-04T23:52:27.654Z,97840.56
2023-12-04T23:54:54.594Z,97829.56
2023-12-04T23:57:21.618Z,97831.88
2023-12-04T23:59:48.875Z,97834.44
